Time;durP1;ratioP1;P1;durP2;ratioP2;P2;SDS_P1;SDS_P2;PMS_P1;PMS_P2;Temp;Humidity;BMP_temperature;BMP_pressure;BME280_temperature;BME280_humidity;BME280_pressure;Samples;Min_cycle;Max_cycle;Signal;HPM_P1;HPM_P2
2022/05/04 00:00:08;;;;;;;0.20;0.20;;;7.30;99.90;;;;;;5012737;28;20044;-73
2022/05/04 00:02:33;;;;;;;0.20;0.20;;;7.40;99.90;;;;;;5048083;28;20048;-73
2022/05/04 00:04:59;;;;;;;0.10;0.10;;;7.30;99.90;;;;;;5010768;28;20045;-73
2022/05/04 00:07:25;;;;;;;0.20;0.20;;;7.30;99.90;;;;;;5048404;28;20049;-73
2022/05/04 00:09:50;;;;;;;0.20;0.20;;;7.30;99.90;;;;;;5015938;28;20064;-73
2022/05/04 00:12:16;;;;;;;0.20;0.20;;;7.30;99.90;;;;;;5016929;28;20048;-73
2022/05/04 00:14:41;;;;;;;0.20;0.20;;;7.30;99.90;;;;;;5031101;28;20123;-73
2022/05/04 00:17:07;;;;;;;0.52;0.52;;;7.30;99.90;;;;;;5036222;28;20068;-73
2022/05/04 00:19:33;;;;;;;0.20;0.20;;;7.30;99.90;;;;;;5021074;28;20053;-73
2022/05/04 00:21:58;;;;;;;0.20;0.20;;;7.30;99.90;;;;;;5027079;28;20591;-73
2022/05/04 00:24:24;;;;;;;0.40;0.40;;;7.30;99.90;;;;;;5016925;28;20055;-73
2022/05/04 00:26:49;;;;;;;0.32;0.32;;;7.30;99.90;;;;;;5030571;28;20045;-73
2022/05/04 00:29:15;;;;;;;0.43;0.43;;;7.30;99.90;;;;;;5022367;28;20431;-73
2022/05/04 00:31:40;;;;;;;0.43;0.30;;;7.30;99.90;;;;;;5005863;28;20425;-73
2022/05/04 00:34:07;;;;;;;0.20;0.20;;;7.30;99.90;;;;;;5016078;28;20041;-73
2022/05/04 00:36:32;;;;;;;0.20;0.20;;;7.40;99.90;;;;;;5015543;28;20148;-73
2022/05/04 00:38:58;;;;;;;0.38;0.38;;;7.40;99.90;;;;;;5030986;28;20244;-73
2022/05/04 00:41:24;;;;;;;0.20;0.20;;;7.40;99.90;;;;;;5028244;28;20024;-73
2022/05/04 00:43:51;;;;;;;0.20;0.20;;;7.40;99.90;;;;;;5028198;28;20076;-73
2022/05/04 00:46:17;;;;;;;0.10;0.10;;;7.40;99.90;;;;;;5044085;28;20045;-73
2022/05/04 00:48:43;;;;;;;1.08;0.60;;;7.40;99.90;;;;;;5035505;28;20079;-73
2022/05/04 00:51:08;;;;;;;0.85;0.85;;;7.40;99.90;;;;;;5024142;28;20417;-73
2022/05/04 00:53:35;;;;;;;0.32;0.32;;;7.40;99.90;;;;;;5015558;28;20045;-73
2022/05/04 00:56:01;;;;;;;0.20;0.20;;;7.40;99.90;;;;;;5032373;28;20044;-73
2022/05/04 01:01:12;;;;;;;2.13;0.50;;;7.40;99.90;;;;;;5012783;28;20045;-73
2022/05/04 01:03:38;;;;;;;5.00;1.63;;;7.40;99.90;;;;;;5013203;28;20068;-73
2022/05/04 01:06:04;;;;;;;0.20;0.20;;;7.40;99.90;;;;;;5052455;28;20075;-73
2022/05/04 01:08:29;;;;;;;1.67;0.45;;;7.40;99.90;;;;;;5032510;28;20045;-73
2022/05/04 01:10:55;;;;;;;0.20;0.20;;;7.40;99.90;;;;;;5029756;28;20045;-73
2022/05/04 01:13:21;;;;;;;1.75;0.80;;;7.40;99.90;;;;;;5007084;28;20131;-73
2022/05/04 01:15:48;;;;;;;0.20;0.20;;;7.40;99.90;;;;;;5048501;28;20160;-73
2022/05/04 01:18:14;;;;;;;0.20;0.20;;;7.40;99.90;;;;;;5031789;28;20041;-73
2022/05/04 01:20:40;;;;;;;0.20;0.20;;;7.30;99.90;;;;;;5021416;28;20083;-73
2022/05/04 01:23:05;;;;;;;0.20;0.20;;;7.40;99.90;;;;;;5027002;28;20056;-73
2022/05/04 01:25:31;;;;;;;0.20;0.20;;;7.40;99.90;;;;;;5048474;28;20041;-73
2022/05/04 01:27:57;;;;;;;0.20;0.20;;;7.30;99.90;;;;;;5042878;28;20818;-73
2022/05/04 01:30:23;;;;;;;0.20;0.20;;;7.30;99.90;;;;;;5020271;28;20049;-73
2022/05/04 01:32:49;;;;;;;5.22;1.75;;;7.40;99.90;;;;;;5028206;28;20048;-73
2022/05/04 01:35:14;;;;;;;0.30;0.30;;;7.40;99.90;;;;;;5028790;28;20036;-73
2022/05/04 01:37:41;;;;;;;0.20;0.20;;;7.40;99.90;;;;;;5020057;28;20042;-75
2022/05/04 01:40:07;;;;;;;0.13;0.13;;;7.30;99.90;;;;;;5013375;28;20047;-73
2022/05/04 01:42:33;;;;;;;0.45;0.45;;;7.30;99.90;;;;;;5044755;28;20081;-73
2022/05/04 01:44:59;;;;;;;0.20;0.20;;;7.30;99.90;;;;;;5025304;28;20044;-73
2022/05/04 01:47:24;;;;;;;0.10;0.10;;;7.30;99.90;;;;;;5031580;28;20159;-73
2022/05/04 01:49:50;;;;;;;3.85;1.05;;;7.40;99.90;;;;;;5010770;28;20084;-73
2022/05/04 01:52:16;;;;;;;0.52;0.52;;;7.40;99.90;;;;;;4995405;28;20053;-73
2022/05/04 01:54:41;;;;;;;0.20;0.20;;;7.30;99.90;;;;;;5003083;28;20448;-73
2022/05/04 01:57:07;;;;;;;0.20;0.20;;;7.40;99.90;;;;;;5011082;28;20045;-73
2022/05/04 01:59:32;;;;;;;0.20;0.20;;;7.40;99.90;;;;;;5001669;28;20040;-73
2022/05/04 02:01:59;;;;;;;0.20;0.20;;;7.30;99.90;;;;;;5013118;28;20095;-73
2022/05/04 02:04:25;;;;;;;0.20;0.20;;;7.40;99.90;;;;;;5019375;28;20072;-73
2022/05/04 02:06:52;;;;;;;0.20;0.20;;;7.40;99.90;;;;;;5013465;28;20072;-73
2022/05/04 02:09:17;;;;;;;0.20;0.20;;;7.40;99.90;;;;;;5046455;28;20099;-73
2022/05/04 02:11:43;;;;;;;0.20;0.20;;;7.30;99.90;;;;;;5046922;28;20036;-73
2022/05/04 02:14:09;;;;;;;0.20;0.20;;;7.40;99.90;;;;;;5030842;28;20444;-73
2022/05/04 02:16:34;;;;;;;0.17;0.17;;;7.40;99.90;;;;;;5013901;28;20037;-73
2022/05/04 02:19:00;;;;;;;0.10;0.10;;;7.40;99.90;;;;;;5029942;28;20033;-73
2022/05/04 02:21:26;;;;;;;0.20;0.20;;;7.40;99.90;;;;;;5014667;28;20120;-73
2022/05/04 02:23:52;;;;;;;0.20;0.20;;;7.40;99.90;;;;;;5014604;28;20103;-73
2022/05/04 02:26:18;;;;;;;1.65;0.38;;;7.40;99.90;;;;;;5030414;28;20494;-73
2022/05/04 02:28:44;;;;;;;0.10;0.10;;;7.30;99.90;;;;;;5030247;28;20037;-73
2022/05/04 02:31:11;;;;;;;0.20;0.20;;;7.30;99.90;;;;;;5012650;28;20116;-73
2022/05/04 02:33:36;;;;;;;0.20;0.20;;;7.30;99.90;;;;;;4996607;28;20435;-73
2022/05/04 02:38:46;;;;;;;0.17;0.17;;;7.20;99.90;;;;;;5035002;28;20513;-73
2022/05/04 02:41:12;;;;;;;0.20;0.20;;;7.20;99.90;;;;;;5020611;28;20180;-73
2022/05/04 02:43:38;;;;;;;0.15;0.15;;;7.30;99.90;;;;;;5015015;28;20154;-73
2022/05/04 02:46:18;;;;;;;0.35;0.35;;;7.30;99.90;;;;;;5008916;28;20045;-73
2022/05/04 02:48:45;;;;;;;0.45;0.45;;;7.30;99.90;;;;;;5007709;28;20045;-73
2022/05/04 02:51:11;;;;;;;0.22;0.22;;;7.20;99.90;;;;;;5029857;28;20187;-73
2022/05/04 02:53:37;;;;;;;0.30;0.30;;;7.20;99.90;;;;;;4998355;28;20049;-73
2022/05/04 02:56:05;;;;;;;0.30;0.30;;;7.20;99.90;;;;;;5021372;28;20052;-73
2022/05/04 02:58:31;;;;;;;2.38;0.82;;;7.20;99.90;;;;;;5025984;28;20518;-73
2022/05/04 03:02:26;;;;;;;7.30;0.73;;;7.20;99.90;;;;;;5016409;28;20041;-73
2022/05/04 03:03:53;;;;;;;0.20;0.20;;;7.30;99.90;;;;;;5023343;28;20114;-73
2022/05/04 03:06:19;;;;;;;0.20;0.20;;;7.30;99.90;;;;;;5000312;28;20091;-73
2022/05/04 03:08:44;;;;;;;0.17;0.17;;;7.30;99.90;;;;;;5026129;28;20037;-73
2022/05/04 03:13:54;;;;;;;0.43;0.43;;;7.30;99.90;;;;;;5037258;28;20476;-73
2022/05/04 03:16:20;;;;;;;0.60;0.60;;;7.30;99.90;;;;;;5031028;28;20098;-73
2022/05/04 03:18:45;;;;;;;0.95;0.63;;;7.30;99.90;;;;;;5015300;28;20030;-73
2022/05/04 03:21:11;;;;;;;0.20;0.20;;;7.30;99.90;;;;;;5000233;28;20041;-73
2022/05/04 03:23:36;;;;;;;0.35;0.35;;;7.30;99.90;;;;;;5016337;28;20044;-73
2022/05/04 03:26:02;;;;;;;0.22;0.22;;;7.30;99.90;;;;;;5005358;28;20541;-73
2022/05/04 03:28:28;;;;;;;0.20;0.20;;;7.30;99.90;;;;;;5019818;28;20100;-73
2022/05/04 03:30:53;;;;;;;0.20;0.20;;;7.30;99.90;;;;;;5013228;28;20045;-73
2022/05/04 03:33:19;;;;;;;2.45;0.85;;;7.30;99.90;;;;;;4999634;28;20476;-73
2022/05/04 03:35:44;;;;;;;0.30;0.30;;;7.30;99.90;;;;;;5016786;28;20073;-73
2022/05/04 03:38:10;;;;;;;0.20;0.20;;;7.30;99.90;;;;;;5016320;28;20041;-73
2022/05/04 03:40:35;;;;;;;0.30;0.30;;;7.30;99.90;;;;;;5015145;28;20056;-73
2022/05/04 03:43:01;;;;;;;3.47;1.33;;;7.30;99.90;;;;;;4999550;28;20052;-73
2022/05/04 03:45:28;;;;;;;1.08;1.08;;;7.30;99.90;;;;;;5021460;28;20041;-73
2022/05/04 03:47:53;;;;;;;8.20;1.40;;;7.30;99.90;;;;;;5010724;28;20041;-73
2022/05/04 03:50:19;;;;;;;0.20;0.20;;;7.30;99.90;;;;;;5004447;28;20492;-73
2022/05/04 03:52:44;;;;;;;0.20;0.20;;;7.30;99.90;;;;;;5021145;28;20056;-73
2022/05/04 03:55:10;;;;;;;0.13;0.13;;;7.30;99.90;;;;;;5011559;28;20036;-73
2022/05/04 03:57:35;;;;;;;0.20;0.20;;;7.30;99.90;;;;;;5017111;28;20036;-73
2022/05/04 04:00:01;;;;;;;0.20;0.20;;;7.30;99.90;;;;;;5014394;28;20041;-73
2022/05/04 04:02:27;;;;;;;0.20;0.20;;;7.30;99.90;;;;;;5004812;28;20041;-73
2022/05/04 04:04:53;;;;;;;0.20;0.20;;;7.30;99.90;;;;;;5012671;28;20041;-73
2022/05/04 04:07:18;;;;;;;0.20;0.20;;;7.30;99.90;;;;;;5011207;28;20081;-73
2022/05/04 04:09:44;;;;;;;0.20;0.20;;;7.30;99.90;;;;;;5019470;28;20048;-73
2022/05/04 04:12:10;;;;;;;0.10;0.10;;;7.30;99.90;;;;;;5019760;28;22005;-73
2022/05/04 04:14:35;;;;;;;0.43;0.43;;;7.40;99.90;;;;;;5046081;28;20056;-74
2022/05/04 04:17:01;;;;;;;2.28;2.08;;;7.30;99.90;;;;;;5031864;28;20374;-73
2022/05/04 04:19:26;;;;;;;0.30;0.30;;;7.30;99.90;;;;;;5039919;28;20032;-73
2022/05/04 04:21:53;;;;;;;0.22;0.22;;;7.30;99.90;;;;;;5020849;28;20556;-73
2022/05/04 04:24:22;;;;;;;0.30;0.30;;;7.30;99.90;;;;;;5014895;28;20056;-73
2022/05/04 04:26:47;;;;;;;0.35;0.35;;;7.30;99.90;;;;;;5017207;28;20053;-74
2022/05/04 04:29:13;;;;;;;0.30;0.30;;;7.30;99.90;;;;;;4996322;28;20052;-74
2022/05/04 04:31:39;;;;;;;0.20;0.20;;;7.30;99.90;;;;;;5006321;28;20102;-74
2022/05/04 04:34:07;;;;;;;0.20;0.20;;;7.30;99.90;;;;;;5021890;28;20103;-74
2022/05/04 04:36:33;;;;;;;0.20;0.20;;;7.30;99.90;;;;;;5021374;28;20514;-74
2022/05/04 04:38:59;;;;;;;0.20;0.20;;;7.30;99.90;;;;;;5015047;28;20049;-74
2022/05/04 04:41:24;;;;;;;0.55;0.55;;;7.40;99.90;;;;;;5046292;28;20105;-74
2022/05/04 04:43:50;;;;;;;0.20;0.20;;;7.40;99.90;;;;;;5052743;28;20033;-74
2022/05/04 04:46:15;;;;;;;0.80;0.75;;;7.40;99.90;;;;;;5030257;28;20080;-74
2022/05/04 04:48:41;;;;;;;0.20;0.20;;;7.50;99.90;;;;;;5024522;28;20037;-74
2022/05/04 04:51:06;;;;;;;0.95;0.95;;;7.50;99.90;;;;;;5015700;28;20060;-74
2022/05/04 04:53:32;;;;;;;0.38;0.38;;;7.50;99.90;;;;;;5016445;28;20041;-74
2022/05/04 04:55:58;;;;;;;0.20;0.20;;;7.60;99.90;;;;;;5032744;28;20045;-73
2022/05/04 04:58:25;;;;;;;0.30;0.30;;;7.60;99.90;;;;;;5032664;28;20495;-74
2022/05/04 05:00:51;;;;;;;0.20;0.20;;;7.60;99.90;;;;;;5013453;28;20464;-74
2022/05/04 05:03:17;;;;;;;0.30;0.30;;;7.70;99.90;;;;;;5000228;28;20043;-74
2022/05/04 05:05:43;;;;;;;0.20;0.20;;;7.70;99.90;;;;;;5013531;28;20132;-74
2022/05/04 05:08:10;;;;;;;0.20;0.20;;;7.80;99.90;;;;;;5012581;28;20041;-73
2022/05/04 05:10:36;;;;;;;0.20;0.20;;;7.80;99.90;;;;;;5012761;28;20483;-74
2022/05/04 05:13:02;;;;;;;11.90;1.08;;;7.80;99.90;;;;;;4996343;28;20041;-74
2022/05/04 05:18:12;;;;;;;0.28;0.28;;;7.90;99.90;;;;;;5032087;28;20047;-74
2022/05/04 05:20:38;;;;;;;0.20;0.20;;;7.90;99.90;;;;;;5016095;28;20481;-74
2022/05/04 05:23:04;;;;;;;0.65;0.50;;;7.90;99.90;;;;;;5032290;28;20516;-74
2022/05/04 05:25:31;;;;;;;0.20;0.20;;;8.00;99.90;;;;;;5031628;28;20111;-74
2022/05/04 05:27:57;;;;;;;0.65;0.65;;;8.00;99.90;;;;;;5047596;28;20044;-74
2022/05/04 05:30:23;;;;;;;0.40;0.40;;;8.10;99.90;;;;;;5041501;28;20053;-74
2022/05/04 05:32:49;;;;;;;0.20;0.20;;;8.10;99.90;;;;;;5019799;28;20425;-74
2022/05/04 05:35:15;;;;;;;0.20;0.20;;;8.20;99.90;;;;;;5038959;28;20045;-74
2022/05/04 05:37:40;;;;;;;0.17;0.17;;;8.20;99.90;;;;;;5022700;28;20603;-74
2022/05/04 05:40:06;;;;;;;0.10;0.10;;;8.20;99.90;;;;;;5009145;28;20353;-74
2022/05/04 05:42:32;;;;;;;0.20;0.20;;;8.30;99.90;;;;;;5033249;28;20699;-74
2022/05/04 05:44:58;;;;;;;0.20;0.20;;;8.30;99.90;;;;;;5040574;28;20045;-74
2022/05/04 05:47:24;;;;;;;0.20;0.20;;;8.40;99.90;;;;;;5011662;28;20496;-74
2022/05/04 05:49:49;;;;;;;0.20;0.20;;;8.50;99.90;;;;;;5028074;28;20060;-74
2022/05/04 05:52:15;;;;;;;0.20;0.20;;;8.50;99.90;;;;;;5041267;28;20052;-74
2022/05/04 05:54:40;;;;;;;3.90;0.40;;;8.60;99.90;;;;;;5044157;28;20171;-74
2022/05/04 05:57:06;;;;;;;0.30;0.30;;;8.60;99.90;;;;;;5030480;28;20041;-74
2022/05/04 05:59:32;;;;;;;0.20;0.20;;;8.60;99.90;;;;;;5012434;28;20297;-74
2022/05/04 06:01:57;;;;;;;0.20;0.20;;;8.70;99.90;;;;;;5011217;28;20033;-74
2022/05/04 06:04:23;;;;;;;0.13;0.13;;;8.70;99.90;;;;;;5013360;28;20423;-74
2022/05/04 06:06:48;;;;;;;0.20;0.20;;;8.70;99.90;;;;;;5029670;28;20056;-74
2022/05/04 06:09:14;;;;;;;0.20;0.20;;;8.80;99.90;;;;;;5009579;28;20063;-74
2022/05/04 06:11:39;;;;;;;2.13;1.15;;;8.80;99.90;;;;;;5011275;28;20040;-74
2022/05/04 06:14:05;;;;;;;1.77;1.17;;;8.90;99.90;;;;;;5027886;28;20473;-74
2022/05/04 06:16:31;;;;;;;0.98;0.52;;;8.90;99.90;;;;;;5006829;28;20071;-74
2022/05/04 06:18:56;;;;;;;0.20;0.20;;;9.00;99.90;;;;;;5029814;28;20124;-74
2022/05/04 06:21:22;;;;;;;5.03;1.00;;;9.00;99.90;;;;;;5031296;28;20491;-74
2022/05/04 06:23:48;;;;;;;0.85;0.52;;;9.00;99.90;;;;;;5012156;28;20047;-74
2022/05/04 06:26:14;;;;;;;7.57;0.98;;;9.00;99.90;;;;;;5012739;28;20098;-74
2022/05/04 06:28:39;;;;;;;0.10;0.10;;;9.10;99.90;;;;;;5003728;28;20621;-74
2022/05/04 06:34:07;;;;;;;0.20;0.20;;;9.10;99.90;;;;;;5018963;28;20052;-74
2022/05/04 06:36:36;;;;;;;0.30;0.30;;;9.20;99.90;;;;;;5026269;28;20071;-74
2022/05/04 06:39:02;;;;;;;0.20;0.20;;;9.20;99.90;;;;;;5027477;28;20392;-74
2022/05/04 06:41:28;;;;;;;0.43;0.43;;;9.20;99.90;;;;;;5027054;28;20443;-74
2022/05/04 06:43:54;;;;;;;1.00;0.47;;;9.30;99.90;;;;;;4999781;28;20045;-74
2022/05/04 06:46:20;;;;;;;1.02;0.70;;;9.40;99.90;;;;;;5037641;28;20063;-74
2022/05/04 06:48:45;;;;;;;0.32;0.32;;;9.40;99.90;;;;;;5050655;28;20084;-74
2022/05/04 06:51:11;;;;;;;2.50;1.25;;;9.50;99.90;;;;;;5046191;28;20045;-75
2022/05/04 06:53:37;;;;;;;4.22;1.67;;;9.50;99.90;;;;;;5020053;28;20037;-74
2022/05/04 06:56:03;;;;;;;0.20;0.20;;;9.50;99.90;;;;;;5023323;28;20045;-74
2022/05/04 06:58:28;;;;;;;0.20;0.20;;;9.60;99.90;;;;;;5015593;28;20037;-74
2022/05/04 07:00:54;;;;;;;1.02;0.47;;;9.60;99.90;;;;;;5012895;28;20057;-74
2022/05/04 07:03:21;;;;;;;0.30;0.30;;;9.70;99.90;;;;;;5020677;28;20119;-74
2022/05/04 07:05:47;;;;;;;5.47;1.27;;;9.80;99.90;;;;;;5038625;28;20075;-74
2022/05/04 07:08:13;;;;;;;0.20;0.20;;;9.90;99.90;;;;;;5039797;28;20496;-74
2022/05/04 07:10:39;;;;;;;0.20;0.20;;;10.00;99.90;;;;;;5013834;28;20052;-74
2022/05/04 07:13:06;;;;;;;24.13;0.47;;;10.10;99.90;;;;;;5013860;28;20040;-74
2022/05/04 07:15:32;;;;;;;6.72;1.10;;;10.20;99.90;;;;;;5020389;28;20063;-74
2022/05/04 07:17:58;;;;;;;4.40;0.57;;;10.30;99.90;;;;;;5046684;28;20124;-74
2022/05/04 07:20:24;;;;;;;0.60;0.60;;;10.30;99.90;;;;;;5036101;28;20036;-74
2022/05/04 07:22:50;;;;;;;2.25;1.15;;;10.30;99.60;;;;;;5002533;28;20045;-74
2022/05/04 07:25:16;;;;;;;0.20;0.20;;;10.40;99.10;;;;;;5010778;28;20048;-74
2022/05/04 07:27:42;;;;;;;0.20;0.20;;;10.40;98.10;;;;;;5011320;28;20529;-74
2022/05/04 07:30:08;;;;;;;5.45;1.60;;;10.50;98.60;;;;;;5024173;28;20053;-74
2022/05/04 07:32:33;;;;;;;1.17;0.85;;;10.50;99.20;;;;;;5022966;28;20048;-74
2022/05/04 07:34:59;;;;;;;1.00;0.88;;;10.50;99.40;;;;;;5027570;28;20040;-74
2022/05/04 07:37:25;;;;;;;0.80;0.70;;;10.50;98.50;;;;;;5032369;28;20405;-74
2022/05/04 07:42:35;;;;;;;0.32;0.32;;;10.50;98.90;;;;;;5048910;28;20091;-74
2022/05/04 07:45:03;;;;;;;2.13;1.45;;;10.60;99.00;;;;;;5034160;28;20512;-74
2022/05/04 07:47:32;;;;;;;0.10;0.10;;;10.60;97.40;;;;;;5055757;28;20124;-74
2022/05/04 07:49:58;;;;;;;0.20;0.20;;;10.70;98.30;;;;;;5031280;28;20096;-74
2022/05/04 07:52:25;;;;;;;0.90;0.70;;;10.70;97.60;;;;;;5059793;28;20051;-74
2022/05/04 07:54:50;;;;;;;1.88;1.25;;;10.80;97.50;;;;;;5021316;28;20041;-74
2022/05/04 07:57:16;;;;;;;0.30;0.30;;;10.90;98.00;;;;;;5019132;28;20081;-74
2022/05/04 07:59:42;;;;;;;0.40;0.40;;;11.00;97.80;;;;;;5039268;28;20245;-74
2022/05/04 08:04:53;;;;;;;0.10;0.10;;;11.10;96.60;;;;;;5037464;28;20052;-74
2022/05/04 08:07:19;;;;;;;0.40;0.40;;;11.10;96.70;;;;;;5002131;28;20063;-74
2022/05/04 08:09:45;;;;;;;1.75;0.95;;;11.20;96.90;;;;;;5023988;28;20036;-75
2022/05/04 08:12:12;;;;;;;0.50;0.50;;;11.20;97.20;;;;;;5015864;28;20045;-75
2022/05/04 08:14:41;;;;;;;0.63;0.30;;;11.10;96.20;;;;;;4997800;28;20044;-74
2022/05/04 08:17:07;;;;;;;4.80;0.98;;;11.00;95.70;;;;;;5020643;28;20032;-74
2022/05/04 08:19:33;;;;;;;6.55;0.95;;;11.00;96.30;;;;;;5014822;28;20044;-74
2022/05/04 08:21:59;;;;;;;0.77;0.77;;;11.00;96.70;;;;;;4997240;28;20097;-74
2022/05/04 08:24:25;;;;;;;0.30;0.30;;;11.00;96.60;;;;;;5041252;28;20042;-74
2022/05/04 08:26:51;;;;;;;6.05;2.38;;;11.00;97.00;;;;;;5018432;28;20510;-74
2022/05/04 08:29:17;;;;;;;1.17;1.17;;;11.00;96.70;;;;;;5024373;28;20141;-74
2022/05/04 08:31:43;;;;;;;0.35;0.35;;;11.10;96.00;;;;;;5019241;28;20122;-74
2022/05/04 08:34:09;;;;;;;2.28;0.82;;;11.10;95.40;;;;;;5015416;28;20527;-74
2022/05/04 08:36:38;;;;;;;3.20;1.33;;;11.20;95.60;;;;;;5013954;28;20689;-74
2022/05/04 08:39:07;;;;;;;2.72;1.42;;;11.20;95.80;;;;;;5030089;28;20049;-75
2022/05/04 08:41:41;;;;;;;0.50;0.38;;;11.20;95.40;;;;;;4996519;28;20463;-75
2022/05/04 08:44:08;;;;;;;0.35;0.35;;;11.20;95.30;;;;;;5022279;28;20125;-74
2022/05/04 08:46:39;;;;;;;0.20;0.20;;;11.20;95.90;;;;;;5019093;28;20045;-74
2022/05/04 08:49:06;;;;;;;0.65;0.52;;;11.40;96.00;;;;;;5027610;28;20452;-74
2022/05/04 08:51:32;;;;;;;0.30;0.30;;;11.50;95.40;;;;;;5010110;28;20147;-74
2022/05/04 08:53:58;;;;;;;4.65;1.33;;;11.50;94.80;;;;;;5025615;28;20040;-74
2022/05/04 08:56:23;;;;;;;8.45;1.23;;;11.60;94.50;;;;;;5025623;28;20389;-75
2022/05/04 08:58:50;;;;;;;1.95;0.95;;;11.50;93.30;;;;;;5009049;28;20048;-74
2022/05/04 09:01:16;;;;;;;0.22;0.22;;;11.50;94.00;;;;;;5032964;28;20044;-74
2022/05/04 09:03:41;;;;;;;3.15;1.13;;;11.60;94.20;;;;;;5032474;28;20032;-74
2022/05/04 09:06:07;;;;;;;1.55;0.88;;;11.70;94.40;;;;;;5025598;28;20122;-74
2022/05/04 09:09:03;;;;;;;1.77;0.55;;;11.80;94.60;;;;;;5010011;28;20496;-74
2022/05/04 09:11:29;;;;;;;2.67;0.57;;;11.90;94.20;;;;;;5020590;28;20040;-74
2022/05/04 09:13:55;;;;;;;1.13;1.02;;;12.10;94.30;;;;;;5035827;28;20050;-73
2022/05/04 09:16:29;;;;;;;1.40;1.20;;;12.10;92.40;;;;;;5015688;28;20451;-73
2022/05/04 09:18:55;;;;;;;0.30;0.30;;;12.20;93.70;;;;;;5022741;28;20041;-73
2022/05/04 09:21:22;;;;;;;1.38;0.70;;;12.30;93.80;;;;;;5011823;28;20048;-73
2022/05/04 09:23:52;;;;;;;0.30;0.30;;;12.40;93.70;;;;;;5044091;28;20407;-74
2022/05/04 09:26:20;;;;;;;1.23;1.13;;;12.60;93.10;;;;;;5013270;28;20044;-74
2022/05/04 09:28:59;;;;;;;2.72;1.27;;;12.80;93.40;;;;;;5029409;28;20056;-74
2022/05/04 09:31:27;;;;;;;0.63;0.63;;;12.70;91.90;;;;;;5019358;28;20033;-74
2022/05/04 09:33:55;;;;;;;1.23;1.08;;;12.60;91.30;;;;;;5012444;28;20080;-74
2022/05/04 09:36:30;;;;;;;2.83;1.58;;;12.50;91.80;;;;;;5032028;28;20055;-73
2022/05/04 09:47:18;;;;;;;0.68;0.43;;;13.10;91.70;;;;;;5028736;28;20382;-74
2022/05/04 09:49:48;;;;;;;4.88;0.63;;;13.20;91.20;;;;;;5029837;28;20057;-73
2022/05/04 09:52:15;;;;;;;0.28;0.28;;;13.10;91.10;;;;;;5030981;28;20083;-73
2022/05/04 09:54:40;;;;;;;1.80;0.80;;;13.00;89.60;;;;;;5031531;28;20397;-74
2022/05/04 09:57:06;;;;;;;3.85;0.88;;;13.00;90.70;;;;;;5029962;28;20335;-74
2022/05/04 09:59:36;;;;;;;0.57;0.55;;;12.90;90.40;;;;;;5012912;28;20068;-74
2022/05/04 10:02:04;;;;;;;2.53;0.82;;;12.80;89.00;;;;;;5019067;28;20051;-74
2022/05/04 10:04:34;;;;;;;0.17;0.17;;;12.80;88.50;;;;;;5023077;28;20124;-73
2022/05/04 10:07:01;;;;;;;1.27;0.85;;;12.70;86.80;;;;;;5019380;28;20072;-73
2022/05/04 10:09:27;;;;;;;1.15;0.73;;;12.70;88.50;;;;;;5024111;28;20084;-73
2022/05/04 10:11:57;;;;;;;1.50;0.93;;;13.20;91.80;;;;;;5034252;28;20060;-74
2022/05/04 10:14:24;;;;;;;0.47;0.47;;;14.10;90.70;;;;;;5027041;28;20048;-74
2022/05/04 10:16:52;;;;;;;8.75;0.68;;;15.00;90.20;;;;;;5016482;28;20049;-74
2022/05/04 10:19:25;;;;;;;7.40;1.00;;;15.60;88.10;;;;;;5016821;28;20431;-73
2022/05/04 10:21:53;;;;;;;0.63;0.63;;;16.10;83.50;;;;;;5020459;28;20123;-74
2022/05/04 10:24:21;;;;;;;0.63;0.63;;;16.40;79.30;;;;;;5015769;28;20120;-73
2022/05/04 10:26:47;;;;;;;0.20;0.20;;;16.60;77.50;;;;;;5031736;28;20132;-74
2022/05/04 10:32:27;;;;;;;0.60;0.60;;;17.10;75.70;;;;;;5023994;28;20048;-75
2022/05/04 10:35:30;;;;;;;0.63;0.63;;;16.90;71.50;;;;;;5006888;28;20061;-74
2022/05/04 10:37:57;;;;;;;0.22;0.22;;;16.60;73.10;;;;;;5010727;28;20072;-74
2022/05/04 10:40:46;;;;;;;3.75;0.73;;;16.50;70.70;;;;;;5016633;28;20512;-73
2022/05/04 10:43:17;;;;;;;0.35;0.32;;;16.10;71.30;;;;;;4997186;28;20047;-74
2022/05/04 10:45:45;;;;;;;7.32;2.85;;;15.80;68.20;;;;;;5013464;28;20069;-73
2022/05/04 10:48:15;;;;;;;0.45;0.40;;;15.60;71.40;;;;;;4997239;28;20044;-73
2022/05/04 10:50:48;;;;;;;0.30;0.30;;;15.30;68.90;;;;;;5003399;28;20062;-74
2022/05/04 10:53:21;;;;;;;;;;;15.00;69.10;;;;;;5009540;28;20059;-74
2022/05/04 10:56:07;;;;;;;0.10;0.10;;;14.60;68.70;;;;;;5029998;28;19983;-74
2022/05/04 10:58:42;;;;;;;0.52;0.52;;;14.30;70.40;;;;;;5019037;28;20036;-73
2022/05/04 11:01:25;;;;;;;20.83;1.27;;;14.30;73.20;;;;;;5025012;28;20041;-73
2022/05/04 11:03:57;;;;;;;0.63;0.63;;;14.70;73.20;;;;;;5034459;28;20124;-74
2022/05/04 11:06:44;;;;;;;0.35;0.35;;;15.30;75.30;;;;;;5031237;28;20041;-73
2022/05/04 11:09:15;;;;;;;5.38;1.70;;;15.80;75.50;;;;;;5029624;28;20036;-73
2022/05/04 11:11:47;;;;;;;0.25;0.25;;;15.80;72.50;;;;;;5030019;28;20119;-73
2022/05/04 11:14:14;;;;;;;1.95;1.38;;;15.80;69.50;;;;;;5029992;28;20469;-74
2022/05/04 11:16:41;;;;;;;3.05;1.15;;;16.00;72.20;;;;;;5012865;28;20037;-74
2022/05/04 11:19:08;;;;;;;1.55;0.95;;;16.10;69.60;;;;;;5029156;28;20036;-74
2022/05/04 11:21:37;;;;;;;3.83;1.02;;;16.00;70.40;;;;;;5013501;28;20382;-74
2022/05/04 11:24:05;;;;;;;1.33;1.23;;;15.80;69.50;;;;;;5029586;28;20053;-74
2022/05/04 11:26:59;;;;;;;2.17;1.75;;;15.70;69.10;;;;;;5037603;28;20037;-74
2022/05/04 11:29:29;;;;;;;3.05;1.50;;;15.60;67.80;;;;;;5030232;28;20562;-74
2022/05/04 11:31:59;;;;;;;0.63;0.63;;;15.40;68.60;;;;;;5045743;28;20397;-74
2022/05/04 11:34:30;;;;;;;7.57;4.35;;;15.30;68.40;;;;;;5029335;28;20041;-74
2022/05/04 11:37:01;;;;;;;3.45;1.60;;;15.40;70.20;;;;;;5030681;28;20553;-73
2022/05/04 11:39:28;;;;;;;1.15;0.55;;;15.50;68.40;;;;;;5029950;28;20033;-74
2022/05/04 11:41:55;;;;;;;0.22;0.22;;;15.60;67.90;;;;;;5046494;28;20128;-74
2022/05/04 11:44:23;;;;;;;10.18;1.60;;;15.90;70.00;;;;;;5045958;28;20496;-74
2022/05/04 11:46:50;;;;;;;2.53;1.67;;;16.30;69.40;;;;;;5030466;28;20056;-74
2022/05/04 11:49:17;;;;;;;0.80;0.32;;;16.40;67.50;;;;;;5017455;28;20118;-74
2022/05/04 11:51:43;;;;;;;3.40;1.50;;;16.50;67.00;;;;;;5012719;28;20045;-73
2022/05/04 11:54:09;;;;;;;1.75;0.52;;;16.40;66.20;;;;;;5023451;28;20142;-74
2022/05/04 11:56:36;;;;;;;2.17;1.25;;;16.40;65.10;;;;;;5009627;28;20041;-73
2022/05/04 11:59:02;;;;;;;1.98;1.88;;;16.40;65.40;;;;;;5010030;28;20048;-74
2022/05/04 12:01:29;;;;;;;0.35;0.35;;;16.10;66.00;;;;;;5022758;28;20043;-73
2022/05/04 12:03:55;;;;;;;1.55;1.00;;;16.30;68.20;;;;;;5004904;28;20036;-73
2022/05/04 12:06:22;;;;;;;2.90;2.65;;;16.60;67.00;;;;;;5002983;28;20098;-73
2022/05/04 12:08:49;;;;;;;1.85;1.10;;;16.80;67.00;;;;;;5033288;28;20491;-74
2022/05/04 12:11:16;;;;;;;1.63;1.52;;;17.10;65.80;;;;;;5021800;28;20127;-73
2022/05/04 12:13:43;;;;;;;0.70;0.70;;;17.10;66.60;;;;;;5016352;28;20083;-73
2022/05/04 12:16:11;;;;;;;3.38;1.85;;;17.30;65.90;;;;;;5016355;28;20044;-74
2022/05/04 12:18:38;;;;;;;1.63;1.33;;;17.60;65.20;;;;;;5016355;28;20045;-73
2022/05/04 12:21:05;;;;;;;701.13;90.90;;;17.70;65.10;;;;;;5032914;28;20037;-74
2022/05/04 12:23:31;;;;;;;1.15;0.88;;;17.70;65.40;;;;;;5032822;28;20041;-74
2022/05/04 12:25:57;;;;;;;1.50;1.15;;;17.70;66.10;;;;;;5016948;28;20077;-74
2022/05/04 12:28:23;;;;;;;13.27;3.20;;;17.90;64.70;;;;;;5016444;28;20514;-74
2022/05/04 12:33:35;;;;;;;2.85;1.50;;;17.90;62.90;;;;;;5046094;28;20049;-74
2022/05/04 12:36:09;;;;;;;2.35;1.40;;;17.80;63.10;;;;;;5012445;28;20049;-74
2022/05/04 12:38:36;;;;;;;1.95;1.27;;;17.80;62.70;;;;;;5025828;28;20519;-74
2022/05/04 12:41:07;;;;;;;0.80;0.63;;;17.60;61.90;;;;;;5033194;28;20136;-74
2022/05/04 12:43:35;;;;;;;0.63;0.63;;;17.60;61.50;;;;;;5046374;28;20500;-73
2022/05/04 12:46:01;;;;;;;2.10;1.00;;;17.70;62.10;;;;;;5014088;28;20128;-73
2022/05/04 12:48:27;;;;;;;1.55;0.85;;;17.80;61.90;;;;;;5016574;28;20077;-73
2022/05/04 12:50:58;;;;;;;9.95;2.00;;;17.70;61.00;;;;;;5016034;28;20574;-74
2022/05/04 12:53:24;;;;;;;1.52;1.27;;;17.70;61.30;;;;;;5012096;28;20041;-73
2022/05/04 12:58:35;;;;;;;3.53;1.55;;;17.50;60.40;;;;;;5016116;28;20393;-74
2022/05/04 13:01:02;;;;;;;1.35;0.77;;;17.50;61.20;;;;;;5028895;28;20112;-74
2022/05/04 13:03:27;;;;;;;3.80;1.10;;;17.40;61.20;;;;;;5012656;28;20099;-73
2022/05/04 13:05:53;;;;;;;1.35;0.40;;;17.30;61.70;;;;;;5032295;28;20382;-73
2022/05/04 13:08:19;;;;;;;1.50;0.82;;;17.40;60.90;;;;;;5012146;28;20175;-74
2022/05/04 13:10:47;;;;;;;2.25;1.90;;;17.60;60.50;;;;;;5012886;28;20136;-74
2022/05/04 13:13:13;;;;;;;283.10;37.72;;;17.70;60.10;;;;;;5013228;28;20497;-73
2022/05/04 13:15:38;;;;;;;835.45;61.78;;;17.60;61.30;;;;;;5015493;28;20054;-73
2022/05/04 13:18:04;;;;;;;272.48;49.13;;;17.50;60.90;;;;;;5032277;28;20131;-73
2022/05/04 13:20:30;;;;;;;214.90;25.75;;;17.40;59.70;;;;;;5032186;28;20044;-73
2022/05/04 13:22:57;;;;;;;6.25;2.22;;;17.20;60.40;;;;;;5007761;28;20041;-74
2022/05/04 13:25:22;;;;;;;1.83;0.77;;;17.10;60.00;;;;;;5012229;28;20076;-74
2022/05/04 13:27:48;;;;;;;0.10;0.10;;;17.00;61.80;;;;;;5012694;28;20170;-73